Latest Weather Observations for Marble Bar

IDW60801

Issued at 10:32 am WST Friday 31 July 2015 (issued every 30 minutes, with the page automatically refreshed every 10 minutes)

About weather observations | Map of weather stations | Latest weather observations for WA | Other Formats
Station Details ID: 004106 Name: MARBLE BAR Lat: -21.18 Lon: 119.75 Height: 182.3 m
Data from the previous 72 hours. | See also: Recent months at Marble Bar
Date/Time
WST
Temp
°C
App
Temp
°C
Dew
Point
Rel
Hum
%
Delta-T
°C
Wind Press
QNH
hPa
Press
MSL
hPa
Rain
since 9 am
mm
Dir
 
Spd
km/h
Gust
km/h
Spd
kts
Gust
kts
31/10:30am 27.9 25.5 2.2 19 12.7 SSE 4 6 2 3 1018.3 1017.8 0.0
31/10:00am 26.6 24.9 3.8 23 11.4 SSE 2 7 1 4 1018.5 1018.0 0.0
31/09:30am 24.8 23.0 3.5 25 10.5 S 2 6 1 3 1018.8 1018.3 0.0
31/09:00am 22.3 20.5 3.4 29 9.1 S 2 4 1 2 1018.8 1018.3 0.0
31/08:30am 21.0 19.7 4.1 33 8.2 CALM 0 0 0 0 1018.8 1018.3 0.0
31/08:00am 17.6 16.4 4.6 42 6.2 CALM 0 0 0 0 1018.5 1018.0 0.0
31/07:30am 15.3 14.2 5.0 50 4.9 CALM 0 4 0 2 1018.4 1017.9 0.0
31/07:00am 13.0 11.3 4.2 55 4.0 SSW 2 4 1 2 1018.2 1017.7 0.0
31/06:30am 11.1 9.8 4.1 62 3.2 CALM 0 0 0 0 1018.0 1017.5 0.0
31/06:00am 11.9 10.6 3.9 58 3.6 CALM 0 0 0 0 1017.9 1017.4 0.0
31/05:30am 12.1 10.7 3.6 56 3.8 CALM 0 0 0 0 1017.5 1017.1 0.0
31/05:00am 13.3 11.9 3.4 51 4.5 CALM 0 2 0 1 1017.3 1016.9 0.0
31/04:30am 14.7 12.9 3.2 46 5.2 ESE 2 6 1 3 1017.3 1016.9 0.0
31/04:00am 14.8 12.2 3.3 46 5.2 SSW 6 7 3 4 1017.5 1017.1 0.0
31/03:30am 14.4 11.6 3.2 47 5.1 SW 7 9 4 5 1017.5 1017.1 0.0
31/03:00am 14.9 12.7 3.1 45 5.4 SSW 4 6 2 3 1017.5 1017.1 0.0
31/02:30am 15.6 13.4 3.1 43 5.7 SSW 4 6 2 3 1017.8 1017.3 0.0
31/02:00am 15.9 13.3 3.0 42 5.9 SSW 6 6 3 3 1018.1 1017.6 0.0
31/01:30am 15.3 12.8 3.5 45 5.4 SSW 6 6 3 3 1018.4 1017.9 0.0
31/01:00am 16.5 14.2 2.5 39 6.4 SSW 4 9 2 5 1018.8 1018.3 0.0
31/12:30am 14.8 12.3 3.6 47 5.2 S 6 9 3 5 1019.1 1018.6 0.0
31/12:00am 14.5 12.7 3.6 48 5.0 S 2 6 1 3 1019.1 1018.6 0.0
 
Date/Time
WST
Temp
°C
App
Temp
°C
Dew
Point
Rel
Hum
%
Delta-T
°C
Wind Press
QNH
hPa
Press
MSL
hPa
Rain
since 9 am
mm
Dir
 
Spd
km/h
Gust
km/h
Spd
kts
Gust
kts
30/11:30pm 15.0 12.8 3.5 46 5.3 SSE 4 6 2 3 1019.3 1018.8 0.0
30/11:00pm 16.2 14.0 3.6 43 5.8 SSW 4 6 2 3 1019.5 1019.0 0.0
30/10:30pm 17.0 15.2 3.3 40 6.4 SSW 2 6 1 3 1019.7 1019.2 0.0
30/10:00pm 18.7 16.4 2.5 34 7.5 ENE 4 6 2 3 1019.7 1019.2 0.0
30/09:30pm 17.6 15.9 3.9 40 6.5 SE 2 2 1 1 1019.5 1019.0 0.0
30/09:00pm 18.8 17.1 3.8 37 7.1 SE 2 6 1 3 1019.4 1018.9 0.0
30/08:30pm 18.9 16.8 3.9 37 7.2 SE 4 6 2 3 1019.4 1018.9 0.0
30/08:00pm 20.3 18.8 3.1 32 8.2 CALM 0 0 0 0 1019.1 1018.6 0.0
30/07:30pm 21.0 18.9 3.7 32 8.4 SE 4 4 2 2 1018.6 1018.1 0.0
30/07:00pm 22.5 21.2 4.1 30 9.0 CALM 0 0 0 0 1018.2 1017.7 0.0
30/06:30pm 24.4 21.8 3.1 25 10.4 E 6 6 3 3 1017.8 1017.3 0.0
30/06:00pm 26.3 24.0 2.9 22 11.5 E 4 6 2 3 1017.6 1017.2 0.0
30/05:30pm 28.8 25.9 1.3 17 13.4 ESE 6 7 3 4 1017.8 1017.3 0.0
30/05:00pm 30.1 26.5 0.6 15 14.3 E 9 15 5 8 1017.6 1017.2 0.0
30/04:30pm 30.8 26.5 1.2 15 14.6 E 13 19 7 10 1017.5 1017.1 0.0
30/04:00pm 31.2 26.1 0.6 14 15.0 E 17 24 9 13 1017.5 1017.1 0.0
30/03:30pm 31.7 27.4 1.0 14 15.2 E 13 24 7 13 1017.5 1017.1 0.0
30/03:00pm 31.5 27.2 0.8 14 15.1 ENE 13 24 7 13 1017.6 1017.2 0.0
30/02:30pm 31.6 26.9 0.9 14 15.2 E 15 24 8 13 1018.2 1017.7 0.0
30/02:00pm 31.1 25.9 2.3 16 14.5 E 19 35 10 19 1018.5 1018.0 0.0
30/01:30pm 31.0 26.5 2.3 16 14.5 E 15 26 8 14 1018.9 1018.4 0.0
30/01:00pm 30.6 26.1 1.9 16 14.3 ENE 15 24 8 13 1019.4 1018.9 0.0
30/12:30pm 30.4 25.8 1.8 16 14.2 E 15 22 8 12 1019.9 1019.4 0.0
30/12:00pm 30.2 26.4 1.6 16 14.1 E 11 20 6 11 1020.6 1020.1 0.0
30/11:30am 29.7 25.6 2.1 17 13.8 ENE 13 24 7 13 1021.2 1020.7 0.0
30/11:00am 28.7 24.6 2.1 18 13.1 ENE 13 20 7 11 1021.6 1021.1 0.0
30/10:30am 27.4 23.8 3.2 21 12.1 ENE 11 17 6 9 1022.0 1021.6 0.0
30/10:00am 26.4 22.1 3.0 22 11.5 ENE 15 22 8 12 1022.3 1021.9 0.0
30/09:30am 25.3 21.9 3.9 25 10.7 ENE 11 20 6 11 1022.5 1022.1 0.0
30/09:00am 24.5 21.5 4.3 27 10.1 E 9 15 5 8 1022.5 1022.1 0.0
30/08:30am 23.5 21.0 4.9 30 9.4 ENE 7 11 4 6 1022.2 1021.8 0.0
30/08:00am 21.8 20.6 6.5 37 7.8 SE 2 6 1 3 1021.9 1021.5 0.0
30/07:30am 17.4 17.1 8.8 57 4.5 CALM 0 2 0 1 1021.4 1020.9 0.0
30/07:00am 14.3 13.1 8.0 66 3.2 SSW 4 6 2 3 1021.1 1020.6 0.0
30/06:30am 14.1 13.6 7.9 66 3.1 CALM 0 0 0 0 1020.5 1020.0 0.0
30/06:00am 14.1 13.5 7.6 65 3.2 CALM 0 0 0 0 1020.4 1019.9 0.0
30/05:30am 14.8 14.2 7.6 62 3.6 CALM 0 0 0 0 1020.0 1019.5 0.0
30/05:00am 15.1 14.7 8.3 64 3.4 CALM 0 0 0 0 1019.7 1019.2 0.0
30/04:30am 15.4 14.6 8.2 62 3.7 SSE 2 4 1 2 1019.6 1019.1 0.0
30/04:00am 15.6 15.1 7.9 60 3.9 CALM 0 0 0 0 1019.6 1019.1 0.0
30/03:30am 15.8 15.3 7.8 59 4.0 CALM 0 0 0 0 1019.7 1019.2 0.0
30/03:00am 16.8 16.3 7.7 55 4.6 CALM 0 0 0 0 1019.7 1019.2 0.0
30/02:30am 17.1 16.6 7.7 54 4.8 CALM 0 0 0 0 1019.8 1019.3 0.0
30/02:00am 16.7 16.2 7.9 56 4.5 CALM 0 0 0 0 1019.9 1019.4 0.0
30/01:30am 17.1 15.9 8.0 55 4.7 SSE 4 4 2 2 1019.8 1019.3 0.0
30/01:00am 17.3 16.5 8.2 55 4.7 SSE 2 4 1 2 1020.1 1019.6 0.0
30/12:30am 18.2 17.0 8.2 52 5.2 SE 4 6 2 3 1020.3 1019.8 0.0
30/12:00am 18.9 17.8 8.3 50 5.5 SE 4 6 2 3 1020.4 1019.9 0.0
 
Date/Time
WST
Temp
°C
App
Temp
°C
Dew
Point
Rel
Hum
%
Delta-T
°C
Wind Press
QNH
hPa
Press
MSL
hPa
Rain
since 9 am
mm
Dir
 
Spd
km/h
Gust
km/h
Spd
kts
Gust
kts
29/11:30pm 18.7 17.5 8.1 50 5.5 SSE 4 6 2 3 1020.5 1020.0 0.0
29/11:00pm 18.6 17.1 8.3 51 5.3 ESE 6 7 3 4 1020.5 1020.0 0.0
29/10:30pm 19.2 17.6 8.2 49 5.7 S 6 7 3 4 1020.4 1019.9 0.0
29/10:00pm 20.2 19.7 7.9 45 6.4 CALM 0 0 0 0 1020.4 1019.9 0.0
29/09:30pm 21.1 20.3 8.0 43 6.9 E 2 6 1 3 1020.6 1020.1 0.0
29/09:00pm 22.2 21.6 7.6 39 7.6 CALM 0 4 0 2 1020.5 1020.0 0.0
29/08:30pm 22.6 22.0 7.2 37 8.0 CALM 0 2 0 1 1020.3 1019.8 0.0
29/08:00pm 21.7 20.6 8.6 43 7.0 SE 4 4 2 2 1020.2 1019.7 0.0
29/07:30pm 22.4 21.8 8.9 42 7.3 SSE 2 6 1 3 1020.0 1019.5 0.0
29/07:00pm 23.5 22.5 8.8 39 7.9 E 4 6 2 3 1019.7 1019.2 0.0
29/06:30pm 24.9 23.6 7.5 33 9.3 ENE 4 6 2 3 1019.2 1018.7 0.0
29/06:00pm 26.7 25.4 7.7 30 10.2 ENE 4 4 2 2 1019.1 1018.6 0.0
29/05:30pm 29.8 28.8 5.8 22 12.7 CALM 0 0 0 0 1018.8 1018.3 0.0
29/05:00pm 30.9 30.0 6.0 21 13.3 CALM 0 2 0 1 1018.8 1018.3 0.0
29/04:30pm 31.2 29.1 5.6 20 13.7 E 6 9 3 5 1018.8 1018.3 0.0
29/04:00pm 31.8 30.1 6.1 20 13.8 E 4 9 2 5 1018.6 1018.1 0.0
29/03:30pm 31.9 30.3 6.2 20 13.9 E 4 9 2 5 1018.6 1018.1 0.0
29/03:00pm 31.8 28.8 6.1 20 13.8 E 11 17 6 9 1018.7 1018.2 0.0
29/02:30pm 32.0 30.0 6.2 20 14.0 SSE 6 15 3 8 1018.8 1018.3 0.0
29/02:00pm 31.8 30.1 6.1 20 13.8 ENE 4 7 2 4 1019.0 1018.5 0.0
29/01:30pm 31.2 29.0 6.3 21 13.4 ESE 7 13 4 7 1019.4 1018.9 0.0
29/01:00pm 31.4 28.7 5.8 20 13.7 ENE 9 17 5 9 1019.9 1019.4 0.0
29/12:30pm 30.6 27.8 5.1 20 13.4 NE 9 17 5 9 1020.4 1019.9 0.0
29/12:00pm 30.1 27.4 5.4 21 13.0 NE 9 20 5 11 1020.9 1020.4 0.0
29/11:30am 29.6 25.6 5.0 21 12.9 NE 15 22 8 12 1021.3 1020.8 0.0
29/11:00am 29.1 25.5 5.2 22 12.5 ENE 13 20 7 11 1021.7 1021.2 0.0
29/10:30am 28.3 24.4 5.2 23 12.0 ENE 15 22 8 12 1022.0 1021.6 0.0
29/10:00am 27.7 23.8 5.3 24 11.6 ENE 15 22 8 12 1022.3 1021.9 0.0
29/09:30am 26.2 22.6 6.8 29 10.3 ENE 15 24 8 13 1022.4 1022.0 0.0
29/09:00am 25.4 22.7 7.5 32 9.5 ENE 11 19 6 10 1022.2 1021.8 0.0
29/08:30am 23.5 21.7 8.0 37 8.3 E 7 11 4 6 1022.1 1021.7 0.0
29/08:00am 22.4 20.8 8.1 40 7.6 ESE 6 7 3 4 1021.9 1021.5 0.0
29/07:30am 19.6 19.2 9.8 53 5.3 SE 2 4 1 2 1021.5 1021.0 0.0
29/07:00am 15.7 15.4 8.7 63 3.6 CALM 0 2 0 1 1021.0 1020.5 0.0
29/06:30am 15.2 14.8 8.4 64 3.5 CALM 0 2 0 1 1020.8 1020.3 0.0
29/06:00am 15.6 14.9 8.4 62 3.7 SSW 2 6 1 3 1020.5 1020.0 0.0
29/05:30am 16.4 14.9 8.4 59 4.1 SSW 6 7 3 4 1020.3 1019.8 0.0
29/05:00am 16.0 14.4 8.2 60 4.0 SSW 6 6 3 3 1020.2 1019.7 0.0
29/04:30am 15.7 15.3 8.4 62 3.7 CALM 0 2 0 1 1020.2 1019.7 0.0
29/04:00am 15.9 15.2 8.4 61 3.8 S 2 4 1 2 1020.4 1019.9 0.0
29/03:30am 16.7 15.7 8.7 59 4.1 SSW 4 4 2 2 1020.6 1020.1 0.0
29/03:00am 17.7 16.7 8.8 56 4.6 SSW 4 7 2 4 1020.6 1020.1 0.0
29/02:30am 17.8 17.5 8.6 55 4.8 CALM 0 2 0 1 1020.7 1020.2 0.0
29/02:00am 18.3 17.5 8.3 52 5.2 S 2 4 1 2 1020.7 1020.2 0.0
29/01:30am 17.7 17.0 8.6 55 4.7 S 2 4 1 2 1020.8 1020.3 0.0
29/01:00am 18.1 17.0 8.4 53 5.0 SE 4 6 2 3 1021.0 1020.5 0.0
29/12:30am 17.7 16.7 8.8 56 4.6 SE 4 4 2 2 1021.2 1020.7 0.0
29/12:00am 18.5 17.5 8.7 53 5.1 S 4 4 2 2 1021.3 1020.8 0.0
 
Date/Time
WST
Temp
°C
App
Temp
°C
Dew
Point
Rel
Hum
%
Delta-T
°C
Wind Press
QNH
hPa
Press
MSL
hPa
Rain
since 9 am
mm
Dir
 
Spd
km/h
Gust
km/h
Spd
kts
Gust
kts
28/11:30pm 18.9 17.9 8.8 52 5.3 S 4 7 2 4 1021.4 1020.9 0.0
28/11:00pm 19.0 18.4 8.9 52 5.3 SSE 2 4 1 2 1021.5 1021.0 0.0
28/10:30pm 19.5 18.9 8.8 50 5.6 SSE 2 2 1 1 1021.7 1021.2 0.0
28/10:00pm 19.8 19.2 9.1 50 5.7 S 2 4 1 2 1021.8 1021.3 0.0
28/09:30pm 20.6 19.9 8.6 46 6.4 NNE 2 7 1 4 1021.6 1021.1 0.0
28/09:00pm 21.0 19.4 8.9 46 6.4 NNE 7 17 4 9 1021.4 1020.9 0.0
28/08:30pm 21.2 20.2 8.8 45 6.6 SSE 4 6 2 3 1021.1 1020.6 0.0
28/08:00pm 21.6 20.6 8.8 44 6.8 SSE 4 7 2 4 1021.0 1020.5 0.0
28/07:30pm 22.1 21.1 8.9 43 7.1 SE 4 4 2 2 1020.8 1020.3 0.0
28/07:00pm 23.1 22.7 8.4 39 7.8 CALM 0 0 0 0 1020.6 1020.1 0.0
28/06:30pm 24.3 23.2 8.3 36 8.6 SSE 4 4 2 2 1020.3 1019.8 0.0
28/06:00pm 26.4 25.2 7.9 31 10.0 S 4 4 2 2 1020.2 1019.7 0.0
28/05:30pm 29.2 28.2 7.2 25 11.9 S 2 4 1 2 1019.9 1019.4 0.0
28/05:00pm 30.6 29.0 6.5 22 13.0 WSW 4 7 2 4 1019.7 1019.2 0.0
28/04:30pm 31.2 30.0 6.3 21 13.4 NW 2 6 1 3 1019.5 1019.0 0.0
28/04:00pm 31.6 30.1 6.6 21 13.6 NNW 4 9 2 5 1019.4 1018.9 0.0
28/03:30pm 31.8 30.3 6.8 21 13.6 WNW 4 9 2 5 1019.4 1018.9 0.0
28/03:00pm 31.3 29.3 7.1 22 13.2 N 7 15 4 8 1019.5 1019.0 0.0
28/02:30pm 31.5 29.1 7.2 22 13.3 NNE 9 19 5 10 1019.5 1019.0 0.0
28/02:00pm 31.1 28.3 6.9 22 13.1 ENE 11 17 6 9 1019.8 1019.3 0.0
28/01:30pm 30.4 28.0 7.0 23 12.7 ENE 9 17 5 9 1020.2 1019.7 0.0
28/01:00pm 30.7 28.0 7.2 23 12.8 NNE 11 17 6 9 1020.6 1020.1 0.0
28/12:30pm 29.9 27.0 6.5 23 12.6 NE 11 19 6 10 1021.0 1020.5 0.0
28/12:00pm 29.2 25.9 6.6 24 12.1 E 13 19 7 10 1021.7 1021.2 0.0
28/11:30am 28.3 25.0 6.4 25 11.6 ENE 13 20 7 11 1022.2 1021.8 0.0
28/11:00am 27.4 23.3 6.2 26 11.1 ENE 17 28 9 15 1022.7 1022.3 0.0

Other Formats:

Comma delimited format used in spreadsheet applications
http://www.bom.gov.au/fwo/IDW60801/IDW60801.95317.axf

JavaScript Object Notation format (JSON) in row-major order
http://www.bom.gov.au/fwo/IDW60801/IDW60801.95317.json